sensor_id;sensor_type;location;lat;lon;timestamp;P1;durP1;ratioP1;P2;durP2;ratioP2
23680;SDS011;62915;50.832;4.462;2023-10-09T00:00:16;14.55;;;6.57;;
23680;SDS011;62915;50.832;4.462;2023-10-09T00:03:00;12.43;;;7.03;;
23680;SDS011;62915;50.832;4.462;2023-10-09T00:05:27;12.88;;;6.93;;
23680;SDS011;62915;50.832;4.462;2023-10-09T00:08:08;10.02;;;6.43;;
23680;SDS011;62915;50.832;4.462;2023-10-09T00:10:34;9.90;;;6.20;;
23680;SDS011;62915;50.832;4.462;2023-10-09T00:13:19;12.15;;;6.65;;
23680;SDS011;62915;50.832;4.462;2023-10-09T00:15:55;11.10;;;6.72;;
23680;SDS011;62915;50.832;4.462;2023-10-09T00:18:27;11.60;;;6.30;;
23680;SDS011;62915;50.832;4.462;2023-10-09T00:20:58;10.70;;;6.47;;
23680;SDS011;62915;50.832;4.462;2023-10-09T00:23:37;10.13;;;6.97;;
23680;SDS011;62915;50.832;4.462;2023-10-09T00:26:04;11.88;;;5.90;;
23680;SDS011;62915;50.832;4.462;2023-10-09T00:28:36;12.27;;;6.22;;
23680;SDS011;62915;50.832;4.462;2023-10-09T00:31:03;12.88;;;6.97;;
23680;SDS011;62915;50.832;4.462;2023-10-09T00:33:32;11.70;;;6.57;;
23680;SDS011;62915;50.832;4.462;2023-10-09T00:36:02;14.00;;;6.70;;
23680;SDS011;62915;50.832;4.462;2023-10-09T00:38:39;9.40;;;6.05;;
23680;SDS011;62915;50.832;4.462;2023-10-09T00:41:09;11.63;;;7.00;;
23680;SDS011;62915;50.832;4.462;2023-10-09T00:43:38;9.75;;;6.53;;
23680;SDS011;62915;50.832;4.462;2023-10-09T00:46:08;11.60;;;6.80;;
23680;SDS011;62915;50.832;4.462;2023-10-09T00:48:49;10.60;;;6.20;;
23680;SDS011;62915;50.832;4.462;2023-10-09T00:51:21;10.52;;;6.22;;
23680;SDS011;62915;50.832;4.462;2023-10-09T00:53:50;10.70;;;6.20;;
23680;SDS011;62915;50.832;4.462;2023-10-09T00:56:20;12.90;;;6.82;;
23680;SDS011;62915;50.832;4.462;2023-10-09T00:58:50;11.63;;;6.63;;
23680;SDS011;62915;50.832;4.462;2023-10-09T01:01:24;10.82;;;6.22;;
23680;SDS011;62915;50.832;4.462;2023-10-09T01:03:59;11.13;;;6.15;;
23680;SDS011;62915;50.832;4.462;2023-10-09T01:06:32;11.18;;;6.38;;
23680;SDS011;62915;50.832;4.462;2023-10-09T01:08:59;12.52;;;6.53;;
23680;SDS011;62915;50.832;4.462;2023-10-09T01:11:43;11.63;;;6.13;;
23680;SDS011;62915;50.832;4.462;2023-10-09T01:14:35;12.70;;;6.50;;
23680;SDS011;62915;50.832;4.462;2023-10-09T01:17:06;10.10;;;6.38;;
23680;SDS011;62915;50.832;4.462;2023-10-09T01:19:33;13.52;;;6.40;;
23680;SDS011;62915;50.832;4.462;2023-10-09T01:21:59;11.75;;;6.97;;
23680;SDS011;62915;50.832;4.462;2023-10-09T01:24:42;10.55;;;6.82;;
23680;SDS011;62915;50.832;4.462;2023-10-09T01:27:08;12.98;;;6.90;;
23680;SDS011;62915;50.832;4.462;2023-10-09T01:29:40;12.65;;;6.88;;
23680;SDS011;62915;50.832;4.462;2023-10-09T01:32:11;12.13;;;6.63;;
23680;SDS011;62915;50.832;4.462;2023-10-09T01:34:45;11.30;;;6.93;;
23680;SDS011;62915;50.832;4.462;2023-10-09T01:37:15;12.07;;;7.25;;
23680;SDS011;62915;50.832;4.462;2023-10-09T01:39:51;13.45;;;7.22;;
23680;SDS011;62915;50.832;4.462;2023-10-09T01:42:21;12.00;;;6.82;;
23680;SDS011;62915;50.832;4.462;2023-10-09T01:44:55;12.40;;;7.60;;
23680;SDS011;62915;50.832;4.462;2023-10-09T01:47:23;12.95;;;8.10;;
23680;SDS011;62915;50.832;4.462;2023-10-09T01:49:51;11.60;;;7.28;;
23680;SDS011;62915;50.832;4.462;2023-10-09T01:52:19;14.18;;;8.43;;
23680;SDS011;62915;50.832;4.462;2023-10-09T01:54:46;15.02;;;7.57;;
23680;SDS011;62915;50.832;4.462;2023-10-09T01:57:15;13.23;;;7.43;;
23680;SDS011;62915;50.832;4.462;2023-10-09T01:59:48;14.68;;;7.68;;
23680;SDS011;62915;50.832;4.462;2023-10-09T02:02:21;12.48;;;7.78;;
23680;SDS011;62915;50.832;4.462;2023-10-09T02:04:59;14.38;;;7.63;;
23680;SDS011;62915;50.832;4.462;2023-10-09T02:07:40;21.73;;;8.25;;
23680;SDS011;62915;50.832;4.462;2023-10-09T02:10:13;14.43;;;7.50;;
23680;SDS011;62915;50.832;4.462;2023-10-09T02:13:00;11.98;;;7.32;;
23680;SDS011;62915;50.832;4.462;2023-10-09T02:15:40;13.27;;;8.13;;
23680;SDS011;62915;50.832;4.462;2023-10-09T02:18:14;9.82;;;7.03;;
23680;SDS011;62915;50.832;4.462;2023-10-09T02:20:52;13.80;;;7.47;;
23680;SDS011;62915;50.832;4.462;2023-10-09T02:23:24;14.30;;;7.97;;
23680;SDS011;62915;50.832;4.462;2023-10-09T02:25:57;14.02;;;7.85;;
23680;SDS011;62915;50.832;4.462;2023-10-09T02:28:27;15.05;;;7.47;;
23680;SDS011;62915;50.832;4.462;2023-10-09T02:30:58;18.05;;;7.75;;
23680;SDS011;62915;50.832;4.462;2023-10-09T02:33:26;13.98;;;7.40;;
23680;SDS011;62915;50.832;4.462;2023-10-09T02:35:58;13.75;;;7.40;;
23680;SDS011;62915;50.832;4.462;2023-10-09T02:38:30;12.43;;;7.40;;
23680;SDS011;62915;50.832;4.462;2023-10-09T02:41:00;12.30;;;7.65;;
23680;SDS011;62915;50.832;4.462;2023-10-09T02:43:30;14.40;;;7.85;;
23680;SDS011;62915;50.832;4.462;2023-10-09T02:46:17;19.05;;;8.15;;
23680;SDS011;62915;50.832;4.462;2023-10-09T02:48:48;11.55;;;7.75;;
23680;SDS011;62915;50.832;4.462;2023-10-09T02:51:18;11.07;;;7.73;;
23680;SDS011;62915;50.832;4.462;2023-10-09T02:54:04;11.82;;;7.47;;
23680;SDS011;62915;50.832;4.462;2023-10-09T02:56:34;16.60;;;8.48;;
23680;SDS011;62915;50.832;4.462;2023-10-09T02:59:12;11.45;;;7.75;;
23680;SDS011;62915;50.832;4.462;2023-10-09T03:01:39;13.45;;;7.57;;
23680;SDS011;62915;50.832;4.462;2023-10-09T03:04:05;12.75;;;7.57;;
23680;SDS011;62915;50.832;4.462;2023-10-09T03:06:35;11.65;;;7.55;;
23680;SDS011;62915;50.832;4.462;2023-10-09T03:09:09;14.05;;;7.72;;
23680;SDS011;62915;50.832;4.462;2023-10-09T03:11:49;10.80;;;7.10;;
23680;SDS011;62915;50.832;4.462;2023-10-09T03:14:27;10.98;;;7.57;;
23680;SDS011;62915;50.832;4.462;2023-10-09T03:16:56;14.40;;;7.45;;
23680;SDS011;62915;50.832;4.462;2023-10-09T03:19:24;12.05;;;8.02;;
23680;SDS011;62915;50.832;4.462;2023-10-09T03:21:51;14.65;;;8.18;;
23680;SDS011;62915;50.832;4.462;2023-10-09T03:24:17;12.15;;;7.70;;
23680;SDS011;62915;50.832;4.462;2023-10-09T03:26:45;18.70;;;8.20;;
23680;SDS011;62915;50.832;4.462;2023-10-09T03:29:12;13.77;;;7.93;;
23680;SDS011;62915;50.832;4.462;2023-10-09T03:31:38;19.63;;;8.30;;
23680;SDS011;62915;50.832;4.462;2023-10-09T03:34:04;15.25;;;8.05;;
23680;SDS011;62915;50.832;4.462;2023-10-09T03:36:30;14.02;;;8.52;;
23680;SDS011;62915;50.832;4.462;2023-10-09T03:39:02;14.43;;;7.95;;
23680;SDS011;62915;50.832;4.462;2023-10-09T03:41:33;12.77;;;8.32;;
23680;SDS011;62915;50.832;4.462;2023-10-09T03:44:05;10.82;;;8.40;;
23680;SDS011;62915;50.832;4.462;2023-10-09T03:46:32;15.15;;;7.80;;
23680;SDS011;62915;50.832;4.462;2023-10-09T03:48:58;17.45;;;8.02;;
23680;SDS011;62915;50.832;4.462;2023-10-09T03:51:28;12.88;;;7.68;;
23680;SDS011;62915;50.832;4.462;2023-10-09T03:53:55;19.10;;;9.55;;
23680;SDS011;62915;50.832;4.462;2023-10-09T03:56:21;12.93;;;8.60;;
23680;SDS011;62915;50.832;4.462;2023-10-09T03:58:50;15.80;;;7.90;;
23680;SDS011;62915;50.832;4.462;2023-10-09T04:01:20;14.55;;;8.40;;
23680;SDS011;62915;50.832;4.462;2023-10-09T04:03:47;15.23;;;8.02;;
23680;SDS011;62915;50.832;4.462;2023-10-09T04:06:12;14.85;;;8.50;;
23680;SDS011;62915;50.832;4.462;2023-10-09T04:08:40;14.23;;;8.15;;
23680;SDS011;62915;50.832;4.462;2023-10-09T04:11:12;15.60;;;8.52;;
23680;SDS011;62915;50.832;4.462;2023-10-09T04:13:45;12.82;;;8.60;;
23680;SDS011;62915;50.832;4.462;2023-10-09T04:16:15;11.73;;;8.73;;
23680;SDS011;62915;50.832;4.462;2023-10-09T04:19:01;12.68;;;8.60;;
23680;SDS011;62915;50.832;4.462;2023-10-09T04:21:36;14.02;;;8.75;;
23680;SDS011;62915;50.832;4.462;2023-10-09T04:24:06;14.52;;;8.90;;
23680;SDS011;62915;50.832;4.462;2023-10-09T04:26:42;14.55;;;8.32;;
23680;SDS011;62915;50.832;4.462;2023-10-09T04:29:14;12.38;;;8.27;;
23680;SDS011;62915;50.832;4.462;2023-10-09T04:31:51;14.23;;;7.78;;
23680;SDS011;62915;50.832;4.462;2023-10-09T04:34:22;15.77;;;9.68;;
23680;SDS011;62915;50.832;4.462;2023-10-09T04:37:08;14.88;;;8.20;;
23680;SDS011;62915;50.832;4.462;2023-10-09T04:39:43;14.35;;;8.38;;
23680;SDS011;62915;50.832;4.462;2023-10-09T04:42:38;15.82;;;9.23;;
23680;SDS011;62915;50.832;4.462;2023-10-09T04:45:11;16.73;;;9.68;;
23680;SDS011;62915;50.832;4.462;2023-10-09T04:47:39;14.00;;;9.55;;
23680;SDS011;62915;50.832;4.462;2023-10-09T04:50:15;13.65;;;8.70;;
23680;SDS011;62915;50.832;4.462;2023-10-09T04:52:44;14.95;;;9.57;;
23680;SDS011;62915;50.832;4.462;2023-10-09T04:55:10;14.82;;;10.13;;
23680;SDS011;62915;50.832;4.462;2023-10-09T05:02:50;14.45;;;10.38;;
23680;SDS011;62915;50.832;4.462;2023-10-09T05:05:22;18.45;;;9.98;;
23680;SDS011;62915;50.832;4.462;2023-10-09T05:10:53;18.98;;;10.15;;
23680;SDS011;62915;50.832;4.462;2023-10-09T05:13:27;17.27;;;10.32;;
23680;SDS011;62915;50.832;4.462;2023-10-09T05:16:06;18.55;;;10.73;;
23680;SDS011;62915;50.832;4.462;2023-10-09T05:18:46;20.63;;;11.05;;
23680;SDS011;62915;50.832;4.462;2023-10-09T05:21:45;14.48;;;10.77;;
23680;SDS011;62915;50.832;4.462;2023-10-09T05:24:10;18.42;;;11.15;;
23680;SDS011;62915;50.832;4.462;2023-10-09T05:26:37;16.25;;;11.27;;
23680;SDS011;62915;50.832;4.462;2023-10-09T05:29:14;16.60;;;10.68;;
23680;SDS011;62915;50.832;4.462;2023-10-09T05:31:53;17.50;;;11.15;;
23680;SDS011;62915;50.832;4.462;2023-10-09T05:34:29;16.35;;;10.95;;
23680;SDS011;62915;50.832;4.462;2023-10-09T05:37:13;18.52;;;11.73;;
23680;SDS011;62915;50.832;4.462;2023-10-09T05:39:45;17.70;;;10.77;;
23680;SDS011;62915;50.832;4.462;2023-10-09T05:45:14;14.82;;;10.30;;
23680;SDS011;62915;50.832;4.462;2023-10-09T05:47:50;20.73;;;11.05;;
23680;SDS011;62915;50.832;4.462;2023-10-09T05:50:20;19.35;;;10.63;;
23680;SDS011;62915;50.832;4.462;2023-10-09T05:52:51;17.52;;;10.73;;
23680;SDS011;62915;50.832;4.462;2023-10-09T05:55:22;19.20;;;11.07;;
23680;SDS011;62915;50.832;4.462;2023-10-09T05:58:07;16.27;;;9.82;;
23680;SDS011;62915;50.832;4.462;2023-10-09T06:00:51;21.10;;;11.30;;
23680;SDS011;62915;50.832;4.462;2023-10-09T06:06:14;22.73;;;10.70;;
23680;SDS011;62915;50.832;4.462;2023-10-09T06:09:04;17.73;;;10.02;;
23680;SDS011;62915;50.832;4.462;2023-10-09T06:11:40;22.88;;;11.30;;
23680;SDS011;62915;50.832;4.462;2023-10-09T06:14:15;19.95;;;11.02;;
23680;SDS011;62915;50.832;4.462;2023-10-09T06:16:51;15.13;;;10.23;;
23680;SDS011;62915;50.832;4.462;2023-10-09T06:19:46;15.93;;;10.82;;
23680;SDS011;62915;50.832;4.462;2023-10-09T06:22:14;18.85;;;10.95;;
23680;SDS011;62915;50.832;4.462;2023-10-09T06:24:58;20.63;;;11.05;;
23680;SDS011;62915;50.832;4.462;2023-10-09T06:27:33;19.40;;;11.32;;
23680;SDS011;62915;50.832;4.462;2023-10-09T06:30:02;19.73;;;11.48;;
23680;SDS011;62915;50.832;4.462;2023-10-09T06:32:48;17.27;;;10.63;;
23680;SDS011;62915;50.832;4.462;2023-10-09T06:35:20;20.88;;;11.18;;
23680;SDS011;62915;50.832;4.462;2023-10-09T06:37:55;19.90;;;10.82;;
23680;SDS011;62915;50.832;4.462;2023-10-09T06:40:29;23.93;;;12.07;;
23680;SDS011;62915;50.832;4.462;2023-10-09T06:43:13;23.42;;;10.88;;
23680;SDS011;62915;50.832;4.462;2023-10-09T06:45:43;19.35;;;11.35;;
23680;SDS011;62915;50.832;4.462;2023-10-09T06:48:09;19.90;;;11.27;;
23680;SDS011;62915;50.832;4.462;2023-10-09T06:50:55;22.77;;;12.35;;
23680;SDS011;62915;50.832;4.462;2023-10-09T06:53:29;17.52;;;11.52;;
23680;SDS011;62915;50.832;4.462;2023-10-09T06:56:13;23.80;;;12.20;;
23680;SDS011;62915;50.832;4.462;2023-10-09T06:58:58;20.42;;;11.75;;
23680;SDS011;62915;50.832;4.462;2023-10-09T07:01:50;22.17;;;12.30;;
23680;SDS011;62915;50.832;4.462;2023-10-09T07:04:35;21.17;;;12.45;;
23680;SDS011;62915;50.832;4.462;2023-10-09T07:07:01;23.58;;;12.65;;
23680;SDS011;62915;50.832;4.462;2023-10-09T07:09:32;22.40;;;11.93;;
23680;SDS011;62915;50.832;4.462;2023-10-09T07:12:08;20.42;;;12.80;;
23680;SDS011;62915;50.832;4.462;2023-10-09T07:14:51;22.85;;;12.38;;
23680;SDS011;62915;50.832;4.462;2023-10-09T07:17:32;27.30;;;13.02;;
23680;SDS011;62915;50.832;4.462;2023-10-09T07:19:58;22.63;;;11.88;;
23680;SDS011;62915;50.832;4.462;2023-10-09T07:22:40;21.48;;;11.73;;
23680;SDS011;62915;50.832;4.462;2023-10-09T07:25:21;18.73;;;12.60;;
23680;SDS011;62915;50.832;4.462;2023-10-09T07:28:06;19.83;;;11.95;;
23680;SDS011;62915;50.832;4.462;2023-10-09T07:30:44;27.30;;;12.73;;
23680;SDS011;62915;50.832;4.462;2023-10-09T07:33:11;22.65;;;13.02;;
23680;SDS011;62915;50.832;4.462;2023-10-09T07:35:40;26.08;;;13.18;;
23680;SDS011;62915;50.832;4.462;2023-10-09T07:38:07;30.45;;;13.65;;
23680;SDS011;62915;50.832;4.462;2023-10-09T07:40:34;18.90;;;12.35;;
23680;SDS011;62915;50.832;4.462;2023-10-09T07:43:20;18.33;;;13.20;;
23680;SDS011;62915;50.832;4.462;2023-10-09T07:45:51;21.50;;;13.07;;
23680;SDS011;62915;50.832;4.462;2023-10-09T07:48:24;21.63;;;12.82;;
23680;SDS011;62915;50.832;4.462;2023-10-09T07:51:04;25.23;;;13.73;;
23680;SDS011;62915;50.832;4.462;2023-10-09T07:53:38;28.10;;;14.02;;
23680;SDS011;62915;50.832;4.462;2023-10-09T07:56:13;23.52;;;13.40;;
23680;SDS011;62915;50.832;4.462;2023-10-09T07:58:46;21.77;;;12.65;;
23680;SDS011;62915;50.832;4.462;2023-10-09T08:01:15;22.13;;;13.05;;
23680;SDS011;62915;50.832;4.462;2023-10-09T08:03:47;17.17;;;12.15;;
23680;SDS011;62915;50.832;4.462;2023-10-09T08:06:22;20.15;;;12.70;;
23680;SDS011;62915;50.832;4.462;2023-10-09T08:09:13;21.88;;;12.30;;
23680;SDS011;62915;50.832;4.462;2023-10-09T08:11:47;20.55;;;12.63;;
23680;SDS011;62915;50.832;4.462;2023-10-09T08:14:42;21.27;;;12.20;;
23680;SDS011;62915;50.832;4.462;2023-10-09T08:17:08;20.75;;;13.68;;
23680;SDS011;62915;50.832;4.462;2023-10-09T08:19:47;22.38;;;13.70;;
23680;SDS011;62915;50.832;4.462;2023-10-09T08:22:36;21.73;;;13.27;;
23680;SDS011;62915;50.832;4.462;2023-10-09T08:25:09;20.15;;;12.52;;
23680;SDS011;62915;50.832;4.462;2023-10-09T08:27:51;24.88;;;13.20;;
23680;SDS011;62915;50.832;4.462;2023-10-09T08:30:22;19.55;;;13.02;;
23680;SDS011;62915;50.832;4.462;2023-10-09T08:32:51;20.77;;;12.68;;
23680;SDS011;62915;50.832;4.462;2023-10-09T08:35:34;25.92;;;13.45;;
23680;SDS011;62915;50.832;4.462;2023-10-09T08:38:14;22.33;;;13.10;;
23680;SDS011;62915;50.832;4.462;2023-10-09T08:40:42;19.75;;;13.07;;
23680;SDS011;62915;50.832;4.462;2023-10-09T08:45:46;25.52;;;12.25;;
23680;SDS011;62915;50.832;4.462;2023-10-09T08:48:26;24.58;;;13.07;;
23680;SDS011;62915;50.832;4.462;2023-10-09T08:50:53;21.92;;;12.98;;
23680;SDS011;62915;50.832;4.462;2023-10-09T08:53:20;28.00;;;13.13;;
23680;SDS011;62915;50.832;4.462;2023-10-09T08:55:47;25.13;;;13.02;;
23680;SDS011;62915;50.832;4.462;2023-10-09T08:58:16;24.88;;;13.15;;
23680;SDS011;62915;50.832;4.462;2023-10-09T09:01:02;22.65;;;12.75;;
23680;SDS011;62915;50.832;4.462;2023-10-09T09:03:41;20.55;;;11.68;;
23680;SDS011;62915;50.832;4.462;2023-10-09T09:06:10;17.95;;;12.60;;
23680;SDS011;62915;50.832;4.462;2023-10-09T09:08:37;24.13;;;13.10;;
23680;SDS011;62915;50.832;4.462;2023-10-09T09:11:09;21.67;;;13.45;;
23680;SDS011;62915;50.832;4.462;2023-10-09T09:13:40;19.70;;;13.07;;
23680;SDS011;62915;50.832;4.462;2023-10-09T09:16:14;18.92;;;13.15;;
23680;SDS011;62915;50.832;4.462;2023-10-09T09:24:19;22.15;;;12.88;;
23680;SDS011;62915;50.832;4.462;2023-10-09T09:26:48;18.95;;;12.07;;
23680;SDS011;62915;50.832;4.462;2023-10-09T09:29:24;20.35;;;12.10;;
23680;SDS011;62915;50.832;4.462;2023-10-09T09:32:10;20.48;;;10.93;;
23680;SDS011;62915;50.832;4.462;2023-10-09T09:34:44;22.85;;;11.63;;
23680;SDS011;62915;50.832;4.462;2023-10-09T09:39:49;19.30;;;12.57;;
23680;SDS011;62915;50.832;4.462;2023-10-09T09:42:17;16.20;;;11.95;;
23680;SDS011;62915;50.832;4.462;2023-10-09T09:44:49;20.33;;;12.05;;
23680;SDS011;62915;50.832;4.462;2023-10-09T09:47:16;18.60;;;12.45;;
23680;SDS011;62915;50.832;4.462;2023-10-09T09:52:18;23.40;;;12.82;;
23680;SDS011;62915;50.832;4.462;2023-10-09T09:54:44;23.70;;;11.88;;
23680;SDS011;62915;50.832;4.462;2023-10-09T09:57:14;23.23;;;12.27;;
23680;SDS011;62915;50.832;4.462;2023-10-09T09:59:53;20.80;;;12.75;;
23680;SDS011;62915;50.832;4.462;2023-10-09T10:02:24;23.40;;;12.80;;
23680;SDS011;62915;50.832;4.462;2023-10-09T10:04:58;21.15;;;12.68;;
23680;SDS011;62915;50.832;4.462;2023-10-09T10:07:33;18.92;;;11.95;;
23680;SDS011;62915;50.832;4.462;2023-10-09T10:16:08;19.08;;;11.95;;
23680;SDS011;62915;50.832;4.462;2023-10-09T10:18:58;24.67;;;12.85;;
23680;SDS011;62915;50.832;4.462;2023-10-09T10:21:28;22.75;;;12.70;;
23680;SDS011;62915;50.832;4.462;2023-10-09T10:23:58;28.33;;;12.48;;
23680;SDS011;62915;50.832;4.462;2023-10-09T10:26:37;24.77;;;13.20;;
23680;SDS011;62915;50.832;4.462;2023-10-09T10:29:15;24.35;;;11.82;;
23680;SDS011;62915;50.832;4.462;2023-10-09T10:32:01;17.08;;;11.90;;
23680;SDS011;62915;50.832;4.462;2023-10-09T10:34:51;25.15;;;13.10;;
23680;SDS011;62915;50.832;4.462;2023-10-09T10:40:22;26.90;;;13.05;;
23680;SDS011;62915;50.832;4.462;2023-10-09T10:43:07;24.33;;;12.27;;
23680;SDS011;62915;50.832;4.462;2023-10-09T10:46:02;21.80;;;13.48;;
23680;SDS011;62915;50.832;4.462;2023-10-09T10:48:51;28.63;;;13.40;;
23680;SDS011;62915;50.832;4.462;2023-10-09T10:51:24;21.10;;;12.68;;
23680;SDS011;62915;50.832;4.462;2023-10-09T10:54:06;23.73;;;12.70;;
23680;SDS011;62915;50.832;4.462;2023-10-09T10:56:55;18.10;;;11.95;;
23680;SDS011;62915;50.832;4.462;2023-10-09T10:59:23;21.88;;;12.48;;
23680;SDS011;62915;50.832;4.462;2023-10-09T11:01:50;18.00;;;11.48;;
23680;SDS011;62915;50.832;4.462;2023-10-09T11:04:17;22.45;;;12.00;;
23680;SDS011;62915;50.832;4.462;2023-10-09T11:06:53;26.00;;;11.63;;
23680;SDS011;62915;50.832;4.462;2023-10-09T11:09:43;18.42;;;11.55;;
23680;SDS011;62915;50.832;4.462;2023-10-09T11:12:29;20.75;;;11.27;;
23680;SDS011;62915;50.832;4.462;2023-10-09T11:15:09;23.63;;;12.35;;
23680;SDS011;62915;50.832;4.462;2023-10-09T11:17:58;16.50;;;11.23;;
23680;SDS011;62915;50.832;4.462;2023-10-09T11:20:39;18.92;;;11.07;;
23680;SDS011;62915;50.832;4.462;2023-10-09T11:23:19;21.55;;;12.23;;
23680;SDS011;62915;50.832;4.462;2023-10-09T11:25:57;17.35;;;10.90;;
23680;SDS011;62915;50.832;4.462;2023-10-09T11:28:43;18.30;;;10.93;;
23680;SDS011;62915;50.832;4.462;2023-10-09T11:31:14;17.90;;;10.85;;
23680;SDS011;62915;50.832;4.462;2023-10-09T11:33:45;21.83;;;11.10;;
23680;SDS011;62915;50.832;4.462;2023-10-09T11:36:14;18.55;;;11.48;;
23680;SDS011;62915;50.832;4.462;2023-10-09T11:38:41;17.25;;;10.57;;
23680;SDS011;62915;50.832;4.462;2023-10-09T11:41:14;19.27;;;10.68;;
23680;SDS011;62915;50.832;4.462;2023-10-09T11:43:53;18.95;;;11.00;;
23680;SDS011;62915;50.832;4.462;2023-10-09T11:46:20;16.13;;;10.40;;
23680;SDS011;62915;50.832;4.462;2023-10-09T11:49:05;23.02;;;11.10;;
23680;SDS011;62915;50.832;4.462;2023-10-09T11:51:44;20.67;;;10.30;;
23680;SDS011;62915;50.832;4.462;2023-10-09T11:54:33;17.50;;;10.50;;
23680;SDS011;62915;50.832;4.462;2023-10-09T11:57:00;20.27;;;10.63;;
23680;SDS011;62915;50.832;4.462;2023-10-09T11:59:30;18.92;;;10.40;;
23680;SDS011;62915;50.832;4.462;2023-10-09T12:02:08;19.33;;;9.63;;
23680;SDS011;62915;50.832;4.462;2023-10-09T12:04:38;15.05;;;9.65;;
23680;SDS011;62915;50.832;4.462;2023-10-09T12:07:10;17.55;;;10.75;;
23680;SDS011;62915;50.832;4.462;2023-10-09T12:09:36;18.15;;;10.95;;
23680;SDS011;62915;50.832;4.462;2023-10-09T12:12:06;20.92;;;10.90;;
23680;SDS011;62915;50.832;4.462;2023-10-09T12:14:35;15.40;;;10.10;;
23680;SDS011;62915;50.832;4.462;2023-10-09T12:17:06;17.92;;;10.18;;
23680;SDS011;62915;50.832;4.462;2023-10-09T12:22:03;16.58;;;10.20;;
23680;SDS011;62915;50.832;4.462;2023-10-09T12:24:30;17.33;;;10.30;;
23680;SDS011;62915;50.832;4.462;2023-10-09T12:26:58;20.23;;;9.90;;
23680;SDS011;62915;50.832;4.462;2023-10-09T12:29:24;21.73;;;10.55;;
23680;SDS011;62915;50.832;4.462;2023-10-09T12:31:57;15.25;;;11.15;;
23680;SDS011;62915;50.832;4.462;2023-10-09T12:34:27;19.90;;;10.80;;
23680;SDS011;62915;50.832;4.462;2023-10-09T12:36:56;16.20;;;10.98;;
23680;SDS011;62915;50.832;4.462;2023-10-09T12:39:26;29.42;;;11.88;;
23680;SDS011;62915;50.832;4.462;2023-10-09T12:41:58;17.65;;;10.75;;
23680;SDS011;62915;50.832;4.462;2023-10-09T12:44:31;17.50;;;10.82;;
23680;SDS011;62915;50.832;4.462;2023-10-09T12:47:08;14.55;;;10.10;;
23680;SDS011;62915;50.832;4.462;2023-10-09T12:49:36;15.38;;;10.52;;
23680;SDS011;62915;50.832;4.462;2023-10-09T12:52:08;122.60;;;20.25;;
23680;SDS011;62915;50.832;4.462;2023-10-09T12:54:44;25.10;;;11.10;;
23680;SDS011;62915;50.832;4.462;2023-10-09T12:57:11;18.77;;;10.00;;
23680;SDS011;62915;50.832;4.462;2023-10-09T12:59:39;24.88;;;11.27;;
23680;SDS011;62915;50.832;4.462;2023-10-09T13:02:10;19.75;;;11.30;;
23680;SDS011;62915;50.832;4.462;2023-10-09T13:04:39;17.90;;;10.65;;
23680;SDS011;62915;50.832;4.462;2023-10-09T13:07:07;16.63;;;9.80;;
23680;SDS011;62915;50.832;4.462;2023-10-09T13:09:33;17.88;;;10.43;;
23680;SDS011;62915;50.832;4.462;2023-10-09T13:12:08;15.60;;;9.77;;
23680;SDS011;62915;50.832;4.462;2023-10-09T13:14:43;19.38;;;11.50;;
23680;SDS011;62915;50.832;4.462;2023-10-09T13:17:08;18.45;;;10.57;;
23680;SDS011;62915;50.832;4.462;2023-10-09T13:19:35;16.33;;;10.27;;
23680;SDS011;62915;50.832;4.462;2023-10-09T13:22:01;21.38;;;10.50;;
23680;SDS011;62915;50.832;4.462;2023-10-09T13:24:29;22.20;;;10.45;;
23680;SDS011;62915;50.832;4.462;2023-10-09T13:26:55;20.15;;;10.50;;
23680;SDS011;62915;50.832;4.462;2023-10-09T13:29:23;60.78;;;12.68;;
23680;SDS011;62915;50.832;4.462;2023-10-09T13:31:49;86.53;;;15.48;;
23680;SDS011;62915;50.832;4.462;2023-10-09T13:34:18;19.65;;;10.95;;
23680;SDS011;62915;50.832;4.462;2023-10-09T13:36:43;20.60;;;10.65;;
23680;SDS011;62915;50.832;4.462;2023-10-09T13:39:18;17.25;;;10.40;;
23680;SDS011;62915;50.832;4.462;2023-10-09T13:41:52;17.85;;;10.52;;
23680;SDS011;62915;50.832;4.462;2023-10-09T13:44:32;20.88;;;10.90;;
23680;SDS011;62915;50.832;4.462;2023-10-09T13:46:59;19.70;;;10.63;;
23680;SDS011;62915;50.832;4.462;2023-10-09T13:49:26;25.17;;;11.38;;
23680;SDS011;62915;50.832;4.462;2023-10-09T13:51:55;15.45;;;10.77;;
23680;SDS011;62915;50.832;4.462;2023-10-09T13:54:22;19.75;;;11.48;;
23680;SDS011;62915;50.832;4.462;2023-10-09T13:56:57;21.85;;;11.48;;
23680;SDS011;62915;50.832;4.462;2023-10-09T13:59:30;24.90;;;11.95;;
23680;SDS011;62915;50.832;4.462;2023-10-09T14:01:56;31.70;;;11.50;;
23680;SDS011;62915;50.832;4.462;2023-10-09T14:04:24;22.33;;;12.77;;
23680;SDS011;62915;50.832;4.462;2023-10-09T14:06:51;20.85;;;11.88;;
23680;SDS011;62915;50.832;4.462;2023-10-09T14:09:25;19.73;;;12.15;;
23680;SDS011;62915;50.832;4.462;2023-10-09T14:12:04;23.52;;;11.57;;
23680;SDS011;62915;50.832;4.462;2023-10-09T14:14:38;20.48;;;11.05;;
23680;SDS011;62915;50.832;4.462;2023-10-09T14:17:17;18.33;;;11.25;;
23680;SDS011;62915;50.832;4.462;2023-10-09T14:19:56;16.98;;;11.63;;
23680;SDS011;62915;50.832;4.462;2023-10-09T14:22:41;18.00;;;11.57;;
23680;SDS011;62915;50.832;4.462;2023-10-09T14:25:07;20.95;;;13.13;;
23680;SDS011;62915;50.832;4.462;2023-10-09T14:27:40;21.77;;;12.23;;
23680;SDS011;62915;50.832;4.462;2023-10-09T14:30:06;23.15;;;12.52;;
23680;SDS011;62915;50.832;4.462;2023-10-09T14:32:37;18.83;;;12.05;;
23680;SDS011;62915;50.832;4.462;2023-10-09T14:35:13;24.58;;;14.15;;
23680;SDS011;62915;50.832;4.462;2023-10-09T14:37:39;18.65;;;12.40;;
23680;SDS011;62915;50.832;4.462;2023-10-09T14:40:05;22.40;;;12.15;;
23680;SDS011;62915;50.832;4.462;2023-10-09T14:42:38;22.38;;;12.10;;
23680;SDS011;62915;50.832;4.462;2023-10-09T14:45:10;19.75;;;12.07;;
23680;SDS011;62915;50.832;4.462;2023-10-09T14:47:43;22.70;;;13.00;;
23680;SDS011;62915;50.832;4.462;2023-10-09T14:50:12;23.27;;;12.95;;
23680;SDS011;62915;50.832;4.462;2023-10-09T14:52:38;19.95;;;12.75;;
23680;SDS011;62915;50.832;4.462;2023-10-09T14:55:05;24.60;;;12.95;;
23680;SDS011;62915;50.832;4.462;2023-10-09T14:57:31;20.35;;;13.52;;
23680;SDS011;62915;50.832;4.462;2023-10-09T15:00:03;18.35;;;12.68;;
23680;SDS011;62915;50.832;4.462;2023-10-09T15:02:40;22.25;;;13.18;;
23680;SDS011;62915;50.832;4.462;2023-10-09T15:05:06;22.77;;;14.23;;
23680;SDS011;62915;50.832;4.462;2023-10-09T15:07:37;20.85;;;14.07;;
23680;SDS011;62915;50.832;4.462;2023-10-09T15:10:06;25.92;;;13.20;;
23680;SDS011;62915;50.832;4.462;2023-10-09T15:12:34;31.33;;;14.40;;
23680;SDS011;62915;50.832;4.462;2023-10-09T15:15:05;17.10;;;12.35;;
23680;SDS011;62915;50.832;4.462;2023-10-09T15:17:42;24.25;;;13.15;;
23680;SDS011;62915;50.832;4.462;2023-10-09T15:20:13;19.15;;;12.45;;
23680;SDS011;62915;50.832;4.462;2023-10-09T15:22:43;22.00;;;13.20;;
23680;SDS011;62915;50.832;4.462;2023-10-09T15:25:10;25.08;;;13.07;;
23680;SDS011;62915;50.832;4.462;2023-10-09T15:27:49;17.42;;;12.85;;
23680;SDS011;62915;50.832;4.462;2023-10-09T15:30:15;23.50;;;12.32;;
23680;SDS011;62915;50.832;4.462;2023-10-09T15:32:42;27.88;;;12.25;;
23680;SDS011;62915;50.832;4.462;2023-10-09T15:35:08;19.17;;;12.07;;
23680;SDS011;62915;50.832;4.462;2023-10-09T15:37:35;22.90;;;12.48;;
23680;SDS011;62915;50.832;4.462;2023-10-09T15:40:01;20.80;;;12.68;;